sensor_id;sensor_type;location;lat;lon;timestamp;P1;durP1;ratioP1;P2;durP2;ratioP2
16171;SDS011;8192;53.596;10.166;2024-01-30T00:00:26;26.83;;;24.40;;
16171;SDS011;8192;53.596;10.166;2024-01-30T00:02:53;27.60;;;24.77;;
16171;SDS011;8192;53.596;10.166;2024-01-30T00:05:20;27.77;;;25.27;;
16171;SDS011;8192;53.596;10.166;2024-01-30T00:07:47;26.33;;;24.00;;
16171;SDS011;8192;53.596;10.166;2024-01-30T00:10:14;26.80;;;24.43;;
16171;SDS011;8192;53.596;10.166;2024-01-30T00:12:41;26.37;;;24.10;;
16171;SDS011;8192;53.596;10.166;2024-01-30T00:15:08;26.53;;;24.03;;
16171;SDS011;8192;53.596;10.166;2024-01-30T00:17:37;26.63;;;24.17;;
16171;SDS011;8192;53.596;10.166;2024-01-30T00:20:04;26.00;;;23.60;;
16171;SDS011;8192;53.596;10.166;2024-01-30T00:22:34;26.77;;;24.20;;
16171;SDS011;8192;53.596;10.166;2024-01-30T00:25:00;26.00;;;23.70;;
16171;SDS011;8192;53.596;10.166;2024-01-30T00:27:27;26.93;;;24.40;;
16171;SDS011;8192;53.596;10.166;2024-01-30T00:29:54;26.30;;;24.10;;
16171;SDS011;8192;53.596;10.166;2024-01-30T00:32:21;25.73;;;23.27;;
16171;SDS011;8192;53.596;10.166;2024-01-30T00:34:50;24.83;;;22.63;;
16171;SDS011;8192;53.596;10.166;2024-01-30T00:37:17;26.33;;;24.03;;
16171;SDS011;8192;53.596;10.166;2024-01-30T00:39:44;25.83;;;23.53;;
16171;SDS011;8192;53.596;10.166;2024-01-30T00:42:10;25.87;;;23.70;;
16171;SDS011;8192;53.596;10.166;2024-01-30T00:44:37;26.07;;;23.77;;
16171;SDS011;8192;53.596;10.166;2024-01-30T00:47:04;25.90;;;23.80;;
16171;SDS011;8192;53.596;10.166;2024-01-30T00:49:31;25.07;;;23.03;;
16171;SDS011;8192;53.596;10.166;2024-01-30T00:52:00;25.53;;;23.43;;
16171;SDS011;8192;53.596;10.166;2024-01-30T00:54:27;25.60;;;23.23;;
16171;SDS011;8192;53.596;10.166;2024-01-30T00:56:54;24.87;;;22.87;;
16171;SDS011;8192;53.596;10.166;2024-01-30T00:59:21;26.10;;;23.80;;
16171;SDS011;8192;53.596;10.166;2024-01-30T01:01:48;24.60;;;22.53;;
16171;SDS011;8192;53.596;10.166;2024-01-30T01:04:15;26.20;;;24.00;;
16171;SDS011;8192;53.596;10.166;2024-01-30T01:06:42;25.03;;;23.07;;
16171;SDS011;8192;53.596;10.166;2024-01-30T01:09:11;25.70;;;23.50;;
16171;SDS011;8192;53.596;10.166;2024-01-30T01:11:38;26.03;;;23.90;;
16171;SDS011;8192;53.596;10.166;2024-01-30T01:14:05;25.50;;;23.40;;
16171;SDS011;8192;53.596;10.166;2024-01-30T01:16:32;25.93;;;23.83;;
16171;SDS011;8192;53.596;10.166;2024-01-30T01:19:00;26.03;;;23.90;;
16171;SDS011;8192;53.596;10.166;2024-01-30T01:21:28;26.43;;;23.90;;
16171;SDS011;8192;53.596;10.166;2024-01-30T01:23:55;26.77;;;23.90;;
16171;SDS011;8192;53.596;10.166;2024-01-30T01:26:23;25.87;;;23.63;;
16171;SDS011;8192;53.596;10.166;2024-01-30T01:28:50;25.03;;;22.93;;
16171;SDS011;8192;53.596;10.166;2024-01-30T01:31:17;25.57;;;23.47;;
16171;SDS011;8192;53.596;10.166;2024-01-30T01:33:44;25.87;;;23.70;;
16171;SDS011;8192;53.596;10.166;2024-01-30T01:36:11;25.67;;;23.57;;
16171;SDS011;8192;53.596;10.166;2024-01-30T01:38:39;26.17;;;23.57;;
16171;SDS011;8192;53.596;10.166;2024-01-30T01:41:06;26.47;;;24.20;;
16171;SDS011;8192;53.596;10.166;2024-01-30T01:43:34;25.47;;;23.40;;
16171;SDS011;8192;53.596;10.166;2024-01-30T01:46:03;25.63;;;23.53;;
16171;SDS011;8192;53.596;10.166;2024-01-30T01:48:30;25.80;;;23.80;;
16171;SDS011;8192;53.596;10.166;2024-01-30T01:50:58;25.83;;;23.50;;
16171;SDS011;8192;53.596;10.166;2024-01-30T01:53:25;25.93;;;23.70;;
16171;SDS011;8192;53.596;10.166;2024-01-30T01:55:52;25.93;;;23.80;;
16171;SDS011;8192;53.596;10.166;2024-01-30T01:58:21;26.47;;;24.13;;
16171;SDS011;8192;53.596;10.166;2024-01-30T02:00:51;26.30;;;24.20;;
16171;SDS011;8192;53.596;10.166;2024-01-30T02:03:18;26.77;;;24.20;;
16171;SDS011;8192;53.596;10.166;2024-01-30T02:05:47;26.07;;;23.77;;
16171;SDS011;8192;53.596;10.166;2024-01-30T02:08:14;26.30;;;23.90;;
16171;SDS011;8192;53.596;10.166;2024-01-30T02:10:41;26.10;;;23.80;;
16171;SDS011;8192;53.596;10.166;2024-01-30T02:13:08;26.30;;;24.27;;
16171;SDS011;8192;53.596;10.166;2024-01-30T02:15:35;26.13;;;23.93;;
16171;SDS011;8192;53.596;10.166;2024-01-30T02:18:04;26.20;;;23.70;;
16171;SDS011;8192;53.596;10.166;2024-01-30T02:20:31;25.77;;;23.57;;
16171;SDS011;8192;53.596;10.166;2024-01-30T02:23:02;26.50;;;24.10;;
16171;SDS011;8192;53.596;10.166;2024-01-30T02:25:30;26.10;;;24.03;;
16171;SDS011;8192;53.596;10.166;2024-01-30T02:28:00;26.73;;;24.53;;
16171;SDS011;8192;53.596;10.166;2024-01-30T02:30:27;27.90;;;25.33;;
16171;SDS011;8192;53.596;10.166;2024-01-30T02:32:53;25.53;;;23.50;;
16171;SDS011;8192;53.596;10.166;2024-01-30T02:35:21;26.17;;;23.87;;
16171;SDS011;8192;53.596;10.166;2024-01-30T02:37:48;26.37;;;24.07;;
16171;SDS011;8192;53.596;10.166;2024-01-30T02:40:17;26.33;;;24.13;;
16171;SDS011;8192;53.596;10.166;2024-01-30T02:42:44;25.60;;;23.63;;
16171;SDS011;8192;53.596;10.166;2024-01-30T02:45:11;26.27;;;23.83;;
16171;SDS011;8192;53.596;10.166;2024-01-30T02:47:39;27.47;;;25.03;;
16171;SDS011;8192;53.596;10.166;2024-01-30T02:50:08;26.57;;;24.17;;
16171;SDS011;8192;53.596;10.166;2024-01-30T02:52:35;26.57;;;24.20;;
16171;SDS011;8192;53.596;10.166;2024-01-30T02:55:02;26.57;;;24.47;;
16171;SDS011;8192;53.596;10.166;2024-01-30T02:57:31;26.40;;;24.10;;
16171;SDS011;8192;53.596;10.166;2024-01-30T02:59:58;27.03;;;24.70;;
16171;SDS011;8192;53.596;10.166;2024-01-30T03:02:25;26.80;;;24.57;;
16171;SDS011;8192;53.596;10.166;2024-01-30T03:04:51;25.60;;;23.50;;
16171;SDS011;8192;53.596;10.166;2024-01-30T03:07:18;25.67;;;23.53;;
16171;SDS011;8192;53.596;10.166;2024-01-30T03:09:47;25.73;;;23.73;;
16171;SDS011;8192;53.596;10.166;2024-01-30T03:12:14;27.40;;;24.80;;
16171;SDS011;8192;53.596;10.166;2024-01-30T03:14:43;27.13;;;24.83;;
16171;SDS011;8192;53.596;10.166;2024-01-30T03:17:09;25.33;;;23.33;;
16171;SDS011;8192;53.596;10.166;2024-01-30T03:19:36;26.57;;;24.10;;
16171;SDS011;8192;53.596;10.166;2024-01-30T03:22:03;25.80;;;23.57;;
16171;SDS011;8192;53.596;10.166;2024-01-30T03:24:30;26.57;;;24.17;;
16171;SDS011;8192;53.596;10.166;2024-01-30T03:26:57;25.30;;;23.27;;
16171;SDS011;8192;53.596;10.166;2024-01-30T03:29:24;26.97;;;24.67;;
16171;SDS011;8192;53.596;10.166;2024-01-30T03:31:52;27.07;;;24.53;;
16171;SDS011;8192;53.596;10.166;2024-01-30T03:34:19;27.70;;;25.43;;
16171;SDS011;8192;53.596;10.166;2024-01-30T03:36:46;27.30;;;24.73;;
16171;SDS011;8192;53.596;10.166;2024-01-30T03:39:13;26.03;;;23.83;;
16171;SDS011;8192;53.596;10.166;2024-01-30T03:41:41;27.90;;;24.83;;
16171;SDS011;8192;53.596;10.166;2024-01-30T03:44:09;27.63;;;25.13;;
16171;SDS011;8192;53.596;10.166;2024-01-30T03:46:36;25.90;;;23.80;;
16171;SDS011;8192;53.596;10.166;2024-01-30T03:49:05;26.50;;;24.07;;
16171;SDS011;8192;53.596;10.166;2024-01-30T03:51:31;26.27;;;23.87;;
16171;SDS011;8192;53.596;10.166;2024-01-30T03:53:58;27.23;;;24.97;;
16171;SDS011;8192;53.596;10.166;2024-01-30T03:56:25;27.97;;;25.47;;
16171;SDS011;8192;53.596;10.166;2024-01-30T03:58:52;28.30;;;25.50;;
16171;SDS011;8192;53.596;10.166;2024-01-30T04:01:19;27.53;;;24.90;;
16171;SDS011;8192;53.596;10.166;2024-01-30T04:03:46;29.13;;;26.10;;
16171;SDS011;8192;53.596;10.166;2024-01-30T04:06:14;28.87;;;26.33;;
16171;SDS011;8192;53.596;10.166;2024-01-30T04:08:41;29.33;;;26.83;;
16171;SDS011;8192;53.596;10.166;2024-01-30T04:11:08;28.47;;;25.73;;
16171;SDS011;8192;53.596;10.166;2024-01-30T04:13:35;28.80;;;26.40;;
16171;SDS011;8192;53.596;10.166;2024-01-30T04:16:02;29.83;;;27.00;;
16171;SDS011;8192;53.596;10.166;2024-01-30T04:18:29;29.07;;;26.37;;
16171;SDS011;8192;53.596;10.166;2024-01-30T04:20:57;29.07;;;26.13;;
16171;SDS011;8192;53.596;10.166;2024-01-30T04:23:25;28.53;;;26.03;;
16171;SDS011;8192;53.596;10.166;2024-01-30T04:25:52;28.57;;;25.90;;
16171;SDS011;8192;53.596;10.166;2024-01-30T04:28:18;28.53;;;25.90;;
16171;SDS011;8192;53.596;10.166;2024-01-30T04:30:45;29.27;;;26.57;;
16171;SDS011;8192;53.596;10.166;2024-01-30T04:33:12;29.30;;;26.40;;
16171;SDS011;8192;53.596;10.166;2024-01-30T04:35:39;28.93;;;26.33;;
16171;SDS011;8192;53.596;10.166;2024-01-30T04:38:06;28.97;;;26.10;;
16171;SDS011;8192;53.596;10.166;2024-01-30T04:40:34;28.87;;;26.23;;
16171;SDS011;8192;53.596;10.166;2024-01-30T04:43:01;29.40;;;26.77;;
16171;SDS011;8192;53.596;10.166;2024-01-30T04:45:28;29.53;;;26.47;;
16171;SDS011;8192;53.596;10.166;2024-01-30T04:47:54;29.73;;;26.87;;
16171;SDS011;8192;53.596;10.166;2024-01-30T04:50:21;29.30;;;26.60;;
16171;SDS011;8192;53.596;10.166;2024-01-30T04:52:48;29.50;;;26.67;;
16171;SDS011;8192;53.596;10.166;2024-01-30T04:55:15;30.37;;;27.47;;
16171;SDS011;8192;53.596;10.166;2024-01-30T04:57:44;30.93;;;27.73;;
16171;SDS011;8192;53.596;10.166;2024-01-30T05:00:11;30.97;;;27.83;;
16171;SDS011;8192;53.596;10.166;2024-01-30T05:02:38;31.83;;;28.73;;
16171;SDS011;8192;53.596;10.166;2024-01-30T05:05:05;30.57;;;27.60;;
16171;SDS011;8192;53.596;10.166;2024-01-30T05:07:32;29.87;;;26.97;;
16171;SDS011;8192;53.596;10.166;2024-01-30T05:10:00;31.37;;;28.27;;
16171;SDS011;8192;53.596;10.166;2024-01-30T05:12:28;30.60;;;27.60;;
16171;SDS011;8192;53.596;10.166;2024-01-30T05:14:56;30.57;;;27.53;;
16171;SDS011;8192;53.596;10.166;2024-01-30T05:17:24;30.37;;;27.63;;
16171;SDS011;8192;53.596;10.166;2024-01-30T05:19:51;31.00;;;28.30;;
16171;SDS011;8192;53.596;10.166;2024-01-30T05:22:17;30.90;;;28.27;;
16171;SDS011;8192;53.596;10.166;2024-01-30T05:24:45;30.27;;;27.37;;
16171;SDS011;8192;53.596;10.166;2024-01-30T05:27:11;30.03;;;27.13;;
16171;SDS011;8192;53.596;10.166;2024-01-30T05:29:39;31.50;;;28.37;;
16171;SDS011;8192;53.596;10.166;2024-01-30T05:32:07;30.83;;;27.70;;
16171;SDS011;8192;53.596;10.166;2024-01-30T05:34:35;30.83;;;28.07;;
16171;SDS011;8192;53.596;10.166;2024-01-30T05:37:03;31.33;;;28.43;;
16171;SDS011;8192;53.596;10.166;2024-01-30T05:39:30;31.60;;;28.77;;
16171;SDS011;8192;53.596;10.166;2024-01-30T05:41:58;32.87;;;29.33;;
16171;SDS011;8192;53.596;10.166;2024-01-30T05:44:25;31.77;;;28.60;;
16171;SDS011;8192;53.596;10.166;2024-01-30T05:46:52;31.43;;;28.43;;
16171;SDS011;8192;53.596;10.166;2024-01-30T05:49:20;30.97;;;28.07;;
16171;SDS011;8192;53.596;10.166;2024-01-30T05:51:47;31.73;;;28.83;;
16171;SDS011;8192;53.596;10.166;2024-01-30T05:54:14;31.57;;;28.27;;
16171;SDS011;8192;53.596;10.166;2024-01-30T05:56:41;31.87;;;28.80;;
16171;SDS011;8192;53.596;10.166;2024-01-30T05:59:08;31.80;;;28.83;;
16171;SDS011;8192;53.596;10.166;2024-01-30T06:01:34;31.63;;;28.10;;
16171;SDS011;8192;53.596;10.166;2024-01-30T06:04:01;31.47;;;28.37;;
16171;SDS011;8192;53.596;10.166;2024-01-30T06:06:30;31.63;;;28.53;;
16171;SDS011;8192;53.596;10.166;2024-01-30T06:08:56;32.40;;;29.10;;
16171;SDS011;8192;53.596;10.166;2024-01-30T06:11:23;32.33;;;29.23;;
16171;SDS011;8192;53.596;10.166;2024-01-30T06:13:50;33.63;;;29.87;;
16171;SDS011;8192;53.596;10.166;2024-01-30T06:16:17;34.97;;;29.20;;
16171;SDS011;8192;53.596;10.166;2024-01-30T06:18:46;32.13;;;29.03;;
16171;SDS011;8192;53.596;10.166;2024-01-30T06:21:13;32.37;;;29.17;;
16171;SDS011;8192;53.596;10.166;2024-01-30T06:23:41;33.83;;;30.53;;
16171;SDS011;8192;53.596;10.166;2024-01-30T06:26:09;34.17;;;29.90;;
16171;SDS011;8192;53.596;10.166;2024-01-30T06:28:36;34.00;;;30.73;;
16171;SDS011;8192;53.596;10.166;2024-01-30T06:31:03;33.63;;;30.10;;
16171;SDS011;8192;53.596;10.166;2024-01-30T06:33:30;32.10;;;29.17;;
16171;SDS011;8192;53.596;10.166;2024-01-30T06:35:59;32.50;;;29.40;;
16171;SDS011;8192;53.596;10.166;2024-01-30T06:38:26;31.43;;;28.37;;
16171;SDS011;8192;53.596;10.166;2024-01-30T06:40:54;33.20;;;29.70;;
16171;SDS011;8192;53.596;10.166;2024-01-30T06:43:21;32.37;;;29.17;;
16171;SDS011;8192;53.596;10.166;2024-01-30T06:45:49;32.23;;;29.23;;
16171;SDS011;8192;53.596;10.166;2024-01-30T06:48:16;32.80;;;29.47;;
16171;SDS011;8192;53.596;10.166;2024-01-30T06:50:43;32.80;;;29.37;;
16171;SDS011;8192;53.596;10.166;2024-01-30T06:53:10;34.20;;;31.00;;
16171;SDS011;8192;53.596;10.166;2024-01-30T06:55:37;33.27;;;29.87;;
16171;SDS011;8192;53.596;10.166;2024-01-30T06:58:06;34.40;;;31.20;;
16171;SDS011;8192;53.596;10.166;2024-01-30T07:00:41;33.73;;;30.23;;
16171;SDS011;8192;53.596;10.166;2024-01-30T07:03:16;33.07;;;29.83;;
16171;SDS011;8192;53.596;10.166;2024-01-30T07:05:42;35.30;;;31.33;;
16171;SDS011;8192;53.596;10.166;2024-01-30T07:08:09;32.23;;;29.10;;
16171;SDS011;8192;53.596;10.166;2024-01-30T07:10:36;33.50;;;29.97;;
16171;SDS011;8192;53.596;10.166;2024-01-30T07:13:03;33.43;;;30.13;;
16171;SDS011;8192;53.596;10.166;2024-01-30T07:15:32;34.30;;;30.70;;
16171;SDS011;8192;53.596;10.166;2024-01-30T07:17:59;33.13;;;29.70;;
16171;SDS011;8192;53.596;10.166;2024-01-30T07:20:26;32.47;;;29.07;;
16171;SDS011;8192;53.596;10.166;2024-01-30T07:22:52;33.60;;;30.13;;
16171;SDS011;8192;53.596;10.166;2024-01-30T07:25:19;32.03;;;28.83;;
16171;SDS011;8192;53.596;10.166;2024-01-30T07:27:46;33.67;;;30.03;;
16171;SDS011;8192;53.596;10.166;2024-01-30T07:30:15;32.97;;;29.67;;
16171;SDS011;8192;53.596;10.166;2024-01-30T07:32:45;32.60;;;29.50;;
16171;SDS011;8192;53.596;10.166;2024-01-30T07:35:12;32.83;;;29.50;;
16171;SDS011;8192;53.596;10.166;2024-01-30T07:37:46;33.77;;;30.47;;
16171;SDS011;8192;53.596;10.166;2024-01-30T07:40:13;33.10;;;29.67;;
16171;SDS011;8192;53.596;10.166;2024-01-30T07:42:40;36.33;;;30.07;;
16171;SDS011;8192;53.596;10.166;2024-01-30T07:45:09;33.00;;;29.80;;
16171;SDS011;8192;53.596;10.166;2024-01-30T07:47:38;33.33;;;29.87;;
16171;SDS011;8192;53.596;10.166;2024-01-30T07:50:05;33.20;;;30.00;;
16171;SDS011;8192;53.596;10.166;2024-01-30T07:52:33;32.53;;;29.27;;
16171;SDS011;8192;53.596;10.166;2024-01-30T07:55:00;33.00;;;29.50;;
16171;SDS011;8192;53.596;10.166;2024-01-30T07:57:25;35.20;;;31.47;;
16171;SDS011;8192;53.596;10.166;2024-01-30T07:59:52;33.07;;;29.80;;
16171;SDS011;8192;53.596;10.166;2024-01-30T08:02:19;33.13;;;29.83;;
16171;SDS011;8192;53.596;10.166;2024-01-30T08:04:48;32.93;;;29.53;;
16171;SDS011;8192;53.596;10.166;2024-01-30T08:07:15;33.80;;;30.43;;
16171;SDS011;8192;53.596;10.166;2024-01-30T08:09:42;35.07;;;31.37;;
16171;SDS011;8192;53.596;10.166;2024-01-30T08:12:09;33.57;;;30.00;;
16171;SDS011;8192;53.596;10.166;2024-01-30T08:14:37;34.27;;;30.60;;
16171;SDS011;8192;53.596;10.166;2024-01-30T08:17:06;33.67;;;30.43;;
16171;SDS011;8192;53.596;10.166;2024-01-30T08:19:33;33.90;;;30.27;;
16171;SDS011;8192;53.596;10.166;2024-01-30T08:22:01;34.87;;;31.43;;
16171;SDS011;8192;53.596;10.166;2024-01-30T08:24:28;34.03;;;30.60;;
16171;SDS011;8192;53.596;10.166;2024-01-30T08:26:56;34.73;;;31.10;;
16171;SDS011;8192;53.596;10.166;2024-01-30T08:29:23;34.53;;;31.20;;
16171;SDS011;8192;53.596;10.166;2024-01-30T08:31:50;33.70;;;30.53;;
16171;SDS011;8192;53.596;10.166;2024-01-30T08:34:17;35.47;;;30.70;;
16171;SDS011;8192;53.596;10.166;2024-01-30T08:36:44;33.83;;;30.47;;
16171;SDS011;8192;53.596;10.166;2024-01-30T08:39:12;33.83;;;30.47;;
16171;SDS011;8192;53.596;10.166;2024-01-30T08:41:39;33.40;;;30.00;;
16171;SDS011;8192;53.596;10.166;2024-01-30T08:44:06;34.33;;;30.97;;
16171;SDS011;8192;53.596;10.166;2024-01-30T08:46:37;35.07;;;31.23;;
16171;SDS011;8192;53.596;10.166;2024-01-30T08:49:04;34.57;;;31.20;;
16171;SDS011;8192;53.596;10.166;2024-01-30T08:51:31;34.70;;;30.50;;
16171;SDS011;8192;53.596;10.166;2024-01-30T08:53:58;35.03;;;31.37;;
16171;SDS011;8192;53.596;10.166;2024-01-30T08:56:27;33.93;;;30.57;;
16171;SDS011;8192;53.596;10.166;2024-01-30T08:58:54;34.03;;;30.73;;
16171;SDS011;8192;53.596;10.166;2024-01-30T09:01:21;34.23;;;30.90;;
16171;SDS011;8192;53.596;10.166;2024-01-30T09:03:48;33.47;;;30.23;;
16171;SDS011;8192;53.596;10.166;2024-01-30T09:06:15;32.80;;;29.50;;
16171;SDS011;8192;53.596;10.166;2024-01-30T09:08:43;32.90;;;29.70;;
16171;SDS011;8192;53.596;10.166;2024-01-30T09:11:10;33.03;;;30.00;;
16171;SDS011;8192;53.596;10.166;2024-01-30T09:13:39;33.27;;;30.00;;
16171;SDS011;8192;53.596;10.166;2024-01-30T09:16:06;33.73;;;30.43;;
16171;SDS011;8192;53.596;10.166;2024-01-30T09:18:33;34.27;;;30.93;;
16171;SDS011;8192;53.596;10.166;2024-01-30T09:21:00;33.00;;;29.73;;
16171;SDS011;8192;53.596;10.166;2024-01-30T09:23:28;32.53;;;29.53;;
16171;SDS011;8192;53.596;10.166;2024-01-30T09:25:55;33.07;;;29.87;;
16171;SDS011;8192;53.596;10.166;2024-01-30T09:28:22;33.37;;;30.17;;
16171;SDS011;8192;53.596;10.166;2024-01-30T09:30:50;31.73;;;28.50;;
16171;SDS011;8192;53.596;10.166;2024-01-30T09:33:17;31.70;;;28.67;;
16171;SDS011;8192;53.596;10.166;2024-01-30T09:35:44;34.67;;;29.43;;
16171;SDS011;8192;53.596;10.166;2024-01-30T09:38:11;31.93;;;28.83;;
16171;SDS011;8192;53.596;10.166;2024-01-30T09:40:41;31.47;;;28.50;;
16171;SDS011;8192;53.596;10.166;2024-01-30T09:43:09;31.53;;;28.73;;
16171;SDS011;8192;53.596;10.166;2024-01-30T09:45:42;32.23;;;29.00;;
16171;SDS011;8192;53.596;10.166;2024-01-30T09:48:12;32.00;;;29.03;;
16171;SDS011;8192;53.596;10.166;2024-01-30T09:50:39;32.37;;;28.93;;
16171;SDS011;8192;53.596;10.166;2024-01-30T09:53:06;31.30;;;28.37;;
16171;SDS011;8192;53.596;10.166;2024-01-30T09:55:35;32.47;;;29.13;;
16171;SDS011;8192;53.596;10.166;2024-01-30T09:58:02;31.60;;;28.70;;
16171;SDS011;8192;53.596;10.166;2024-01-30T10:00:29;31.30;;;28.37;;
16171;SDS011;8192;53.596;10.166;2024-01-30T10:02:56;33.13;;;29.80;;
16171;SDS011;8192;53.596;10.166;2024-01-30T10:05:25;31.97;;;28.97;;
16171;SDS011;8192;53.596;10.166;2024-01-30T10:07:53;32.33;;;29.53;;
16171;SDS011;8192;53.596;10.166;2024-01-30T10:10:21;31.33;;;28.17;;
16171;SDS011;8192;53.596;10.166;2024-01-30T10:12:49;31.37;;;28.67;;
16171;SDS011;8192;53.596;10.166;2024-01-30T10:15:17;32.03;;;29.17;;
16171;SDS011;8192;53.596;10.166;2024-01-30T10:17:44;31.97;;;29.07;;
16171;SDS011;8192;53.596;10.166;2024-01-30T10:20:11;32.07;;;29.07;;
16171;SDS011;8192;53.596;10.166;2024-01-30T10:22:41;32.27;;;29.23;;
16171;SDS011;8192;53.596;10.166;2024-01-30T10:25:09;30.93;;;28.00;;
16171;SDS011;8192;53.596;10.166;2024-01-30T10:27:36;31.20;;;28.37;;
16171;SDS011;8192;53.596;10.166;2024-01-30T10:30:06;31.60;;;28.53;;
16171;SDS011;8192;53.596;10.166;2024-01-30T10:32:34;31.80;;;28.60;;
16171;SDS011;8192;53.596;10.166;2024-01-30T10:35:01;30.70;;;28.00;;
16171;SDS011;8192;53.596;10.166;2024-01-30T10:37:28;30.13;;;27.57;;
16171;SDS011;8192;53.596;10.166;2024-01-30T10:42:49;31.07;;;28.20;;
16171;SDS011;8192;53.596;10.166;2024-01-30T10:45:20;30.27;;;27.50;;
16171;SDS011;8192;53.596;10.166;2024-01-30T10:47:49;31.60;;;28.57;;
16171;SDS011;8192;53.596;10.166;2024-01-30T10:50:16;33.57;;;27.87;;
16171;SDS011;8192;53.596;10.166;2024-01-30T10:52:43;31.77;;;28.97;;
16171;SDS011;8192;53.596;10.166;2024-01-30T10:55:11;30.03;;;27.47;;
16171;SDS011;8192;53.596;10.166;2024-01-30T10:57:46;30.77;;;28.17;;
16171;SDS011;8192;53.596;10.166;2024-01-30T11:00:14;31.30;;;28.30;;
16171;SDS011;8192;53.596;10.166;2024-01-30T11:02:43;30.80;;;27.80;;
16171;SDS011;8192;53.596;10.166;2024-01-30T11:05:11;31.03;;;28.20;;
16171;SDS011;8192;53.596;10.166;2024-01-30T11:07:40;30.77;;;28.00;;
16171;SDS011;8192;53.596;10.166;2024-01-30T11:10:07;29.70;;;27.00;;
16171;SDS011;8192;53.596;10.166;2024-01-30T11:12:38;29.90;;;27.20;;
16171;SDS011;8192;53.596;10.166;2024-01-30T11:15:08;30.23;;;27.53;;
16171;SDS011;8192;53.596;10.166;2024-01-30T11:17:44;30.23;;;27.57;;
16171;SDS011;8192;53.596;10.166;2024-01-30T11:20:16;29.47;;;26.87;;
16171;SDS011;8192;53.596;10.166;2024-01-30T11:22:47;29.70;;;27.00;;
16171;SDS011;8192;53.596;10.166;2024-01-30T11:25:17;29.40;;;26.70;;
16171;SDS011;8192;53.596;10.166;2024-01-30T11:27:47;31.37;;;28.53;;
16171;SDS011;8192;53.596;10.166;2024-01-30T11:30:23;30.73;;;27.92;;
16171;SDS011;8192;53.596;10.166;2024-01-30T11:33:01;30.50;;;27.60;;
16171;SDS011;8192;53.596;10.166;2024-01-30T11:35:31;30.00;;;27.40;;
16171;SDS011;8192;53.596;10.166;2024-01-30T11:37:59;29.08;;;26.70;;
16171;SDS011;8192;53.596;10.166;2024-01-30T11:40:27;30.00;;;27.27;;
16171;SDS011;8192;53.596;10.166;2024-01-30T11:42:54;30.13;;;27.33;;
16171;SDS011;8192;53.596;10.166;2024-01-30T11:45:22;29.42;;;26.75;;
16171;SDS011;8192;53.596;10.166;2024-01-30T11:47:50;29.93;;;27.23;;
16171;SDS011;8192;53.596;10.166;2024-01-30T11:50:18;29.87;;;27.10;;
16171;SDS011;8192;53.596;10.166;2024-01-30T11:52:46;29.63;;;27.00;;
16171;SDS011;8192;53.596;10.166;2024-01-30T11:55:13;29.35;;;26.85;;
16171;SDS011;8192;53.596;10.166;2024-01-30T11:57:41;28.98;;;26.48;;
16171;SDS011;8192;53.596;10.166;2024-01-30T12:00:13;28.97;;;26.27;;
16171;SDS011;8192;53.596;10.166;2024-01-30T12:02:42;28.88;;;26.45;;
16171;SDS011;8192;53.596;10.166;2024-01-30T12:05:09;30.07;;;27.13;;
16171;SDS011;8192;53.596;10.166;2024-01-30T12:07:37;29.48;;;26.58;;
16171;SDS011;8192;53.596;10.166;2024-01-30T12:10:05;29.98;;;26.92;;
16171;SDS011;8192;53.596;10.166;2024-01-30T12:12:33;29.80;;;26.83;;
16171;SDS011;8192;53.596;10.166;2024-01-30T12:15:00;28.90;;;26.43;;
16171;SDS011;8192;53.596;10.166;2024-01-30T12:17:28;29.87;;;27.00;;
16171;SDS011;8192;53.596;10.166;2024-01-30T12:23:19;29.80;;;27.00;;
16171;SDS011;8192;53.596;10.166;2024-01-30T12:25:50;29.23;;;26.40;;
16171;SDS011;8192;53.596;10.166;2024-01-30T12:28:17;28.42;;;25.95;;
16171;SDS011;8192;53.596;10.166;2024-01-30T12:30:45;28.23;;;25.77;;
16171;SDS011;8192;53.596;10.166;2024-01-30T12:33:15;28.52;;;26.02;;
16171;SDS011;8192;53.596;10.166;2024-01-30T12:35:45;28.90;;;26.08;;
16171;SDS011;8192;53.596;10.166;2024-01-30T12:38:12;28.67;;;26.02;;
16171;SDS011;8192;53.596;10.166;2024-01-30T12:40:40;29.20;;;26.30;;
16171;SDS011;8192;53.596;10.166;2024-01-30T12:43:07;29.03;;;26.50;;
16171;SDS011;8192;53.596;10.166;2024-01-30T12:45:35;28.80;;;26.20;;
16171;SDS011;8192;53.596;10.166;2024-01-30T12:48:02;28.65;;;26.25;;
16171;SDS011;8192;53.596;10.166;2024-01-30T12:50:29;29.00;;;26.20;;
16171;SDS011;8192;53.596;10.166;2024-01-30T12:52:56;29.13;;;26.47;;
16171;SDS011;8192;53.596;10.166;2024-01-30T12:55:24;27.97;;;25.57;;
16171;SDS011;8192;53.596;10.166;2024-01-30T12:57:54;28.23;;;25.70;;
16171;SDS011;8192;53.596;10.166;2024-01-30T13:00:21;29.50;;;27.02;;
16171;SDS011;8192;53.596;10.166;2024-01-30T13:02:48;29.88;;;27.08;;
16171;SDS011;8192;53.596;10.166;2024-01-30T13:05:15;29.40;;;26.87;;
16171;SDS011;8192;53.596;10.166;2024-01-30T13:07:42;29.15;;;26.73;;
16171;SDS011;8192;53.596;10.166;2024-01-30T13:10:09;29.85;;;27.20;;
16171;SDS011;8192;53.596;10.166;2024-01-30T13:12:36;29.85;;;27.17;;
16171;SDS011;8192;53.596;10.166;2024-01-30T13:15:05;29.37;;;26.40;;
16171;SDS011;8192;53.596;10.166;2024-01-30T13:17:32;28.90;;;26.47;;
16171;SDS011;8192;53.596;10.166;2024-01-30T13:20:01;30.73;;;27.77;;
16171;SDS011;8192;53.596;10.166;2024-01-30T13:22:29;29.30;;;26.60;;
16171;SDS011;8192;53.596;10.166;2024-01-30T13:24:56;29.83;;;27.08;;
16171;SDS011;8192;53.596;10.166;2024-01-30T13:27:23;29.38;;;26.40;;
16171;SDS011;8192;53.596;10.166;2024-01-30T13:29:50;29.45;;;26.95;;
16171;SDS011;8192;53.596;10.166;2024-01-30T13:32:24;28.52;;;25.63;;
16171;SDS011;8192;53.596;10.166;2024-01-30T13:34:51;29.30;;;26.38;;
16171;SDS011;8192;53.596;10.166;2024-01-30T13:37:18;30.67;;;27.55;;
16171;SDS011;8192;53.596;10.166;2024-01-30T13:39:45;29.03;;;26.50;;
16171;SDS011;8192;53.596;10.166;2024-01-30T13:42:12;29.23;;;26.52;;
16171;SDS011;8192;53.596;10.166;2024-01-30T13:44:39;29.95;;;26.92;;
16171;SDS011;8192;53.596;10.166;2024-01-30T13:47:06;29.15;;;26.20;;
16171;SDS011;8192;53.596;10.166;2024-01-30T13:49:34;29.02;;;26.52;;
16171;SDS011;8192;53.596;10.166;2024-01-30T13:52:01;29.08;;;26.30;;
16171;SDS011;8192;53.596;10.166;2024-01-30T13:54:28;30.75;;;26.92;;
16171;SDS011;8192;53.596;10.166;2024-01-30T13:56:55;29.15;;;26.35;;
16171;SDS011;8192;53.596;10.166;2024-01-30T13:59:22;31.02;;;27.55;;
16171;SDS011;8192;53.596;10.166;2024-01-30T14:01:50;29.40;;;26.42;;
16171;SDS011;8192;53.596;10.166;2024-01-30T14:04:17;29.85;;;26.92;;
16171;SDS011;8192;53.596;10.166;2024-01-30T14:06:46;30.75;;;27.67;;
16171;SDS011;8192;53.596;10.166;2024-01-30T14:09:13;30.10;;;27.08;;
16171;SDS011;8192;53.596;10.166;2024-01-30T14:11:41;31.30;;;26.38;;
16171;SDS011;8192;53.596;10.166;2024-01-30T14:14:08;29.40;;;26.42;;
16171;SDS011;8192;53.596;10.166;2024-01-30T14:16:35;28.08;;;25.30;;
16171;SDS011;8192;53.596;10.166;2024-01-30T14:19:02;28.83;;;26.15;;
16171;SDS011;8192;53.596;10.166;2024-01-30T14:21:29;29.27;;;26.77;;
16171;SDS011;8192;53.596;10.166;2024-01-30T14:24:00;29.17;;;26.40;;
16171;SDS011;8192;53.596;10.166;2024-01-30T14:26:26;27.92;;;25.15;;
16171;SDS011;8192;53.596;10.166;2024-01-30T14:28:53;28.92;;;26.33;;